createdAt,value
2022-11-11T00:00:08.690Z,8.93
2022-11-11T00:00:40.137Z,9.10
2022-11-11T00:01:14.866Z,8.65
2022-11-11T00:01:49.308Z,8.13
2022-11-11T00:02:20.860Z,8.32
2022-11-11T00:02:56.972Z,8.05
2022-11-11T00:03:31.781Z,7.80
2022-11-11T00:04:05.159Z,8.10
2022-11-11T00:04:41.419Z,8.55
2022-11-11T00:05:12.964Z,8.93
2022-11-11T00:05:48.091Z,8.52
2022-11-11T00:06:19.812Z,9.27
2022-11-11T00:06:53.673Z,8.68
2022-11-11T00:07:25.184Z,9.02
2022-11-11T00:08:00.782Z,8.98
2022-11-11T00:08:32.568Z,9.25
2022-11-11T00:09:05.611Z,8.15
2022-11-11T00:09:37.007Z,8.57
2022-11-11T00:10:12.957Z,8.98
2022-11-11T00:10:53.977Z,8.27
2022-11-11T00:11:27.098Z,8.65
2022-11-11T00:12:01.044Z,9.30
2022-11-11T00:12:32.582Z,8.65
2022-11-11T00:13:05.936Z,9.05
2022-11-11T00:13:38.393Z,9.38
2022-11-11T00:14:11.496Z,9.02
2022-11-11T00:14:43.001Z,8.65
2022-11-11T00:15:16.560Z,9.63
2022-11-11T00:15:48.121Z,8.77
2022-11-11T00:16:29.188Z,8.95
2022-11-11T00:17:19.363Z,9.20
2022-11-11T00:18:09.544Z,9.55
2022-11-11T00:19:08.052Z,8.95
2022-11-11T00:19:58.054Z,9.68
2022-11-11T00:20:48.122Z,8.55
2022-11-11T00:21:38.377Z,9.40
2022-11-11T00:22:41.455Z,8.73
2022-11-11T00:23:43.462Z,9.30
2022-11-11T00:24:42.894Z,9.48
2022-11-11T00:25:16.393Z,9.88
2022-11-11T00:25:54.283Z,10.88
2022-11-11T00:26:43.567Z,10.48
2022-11-11T00:27:16.149Z,10.07
2022-11-11T00:27:47.603Z,10.43
2022-11-11T00:28:19.610Z,9.68
2022-11-11T00:28:50.940Z,11.15
2022-11-11T00:29:22.482Z,11.07
2022-11-11T00:29:53.965Z,10.23
2022-11-11T00:30:27.774Z,10.77
2022-11-11T00:31:17.328Z,11.57
2022-11-11T00:32:10.530Z,10.23
2022-11-11T00:32:44.519Z,11.48
2022-11-11T00:33:19.280Z,9.98
2022-11-11T00:33:58.634Z,10.68
2022-11-11T00:34:32.478Z,11.57
2022-11-11T00:35:22.660Z,11.35
2022-11-11T00:35:54.600Z,9.95
2022-11-11T00:36:36.206Z,11.63
2022-11-11T00:37:07.566Z,12.07
2022-11-11T00:37:39.803Z,11.88
2022-11-11T00:38:35.999Z,12.18
2022-11-11T00:39:07.367Z,10.88
2022-11-11T00:39:39.172Z,11.77
2022-11-11T00:40:12.324Z,12.35
2022-11-11T00:40:46.611Z,11.63
2022-11-11T00:41:23.331Z,12.68
2022-11-11T00:41:54.668Z,12.75
2022-11-11T00:42:29.500Z,12.90
2022-11-11T00:43:01.049Z,12.15
2022-11-11T00:43:34.127Z,12.30
2022-11-11T00:44:07.044Z,13.43
2022-11-11T00:44:38.432Z,11.80
2022-11-11T00:45:16.776Z,12.07
2022-11-11T00:45:50.806Z,11.95
2022-11-11T00:46:40.834Z,13.35
2022-11-11T00:47:30.932Z,11.93
2022-11-11T00:48:21.208Z,11.25
2022-11-11T00:49:11.163Z,11.57
2022-11-11T00:50:00.933Z,12.43
2022-11-11T00:50:50.733Z,12.00
2022-11-11T00:51:22.092Z,13.00
2022-11-11T00:51:53.398Z,11.38
2022-11-11T00:52:24.810Z,13.43
2022-11-11T00:52:56.482Z,13.13
2022-11-11T00:53:30.356Z,12.63
2022-11-11T00:54:01.796Z,13.70
2022-11-11T00:54:33.297Z,13.20
2022-11-11T00:55:05.369Z,13.10
2022-11-11T00:55:36.821Z,12.85
2022-11-11T00:56:08.342Z,13.40
2022-11-11T00:56:40.125Z,13.05
2022-11-11T00:57:11.621Z,13.80
2022-11-11T00:57:50.728Z,13.95
2022-11-11T00:58:29.174Z,13.05
2022-11-11T00:59:01.003Z,13.18
2022-11-11T00:59:35.510Z,12.93
2022-11-11T01:00:07.937Z,12.55
2022-11-11T01:00:39.421Z,12.37
2022-11-11T01:01:12.226Z,12.10
2022-11-11T01:01:43.915Z,12.73
2022-11-11T01:02:15.615Z,13.63
2022-11-11T01:02:47.222Z,12.80
2022-11-11T01:03:19.228Z,12.45
2022-11-11T01:03:55.529Z,14.35
2022-11-11T01:04:27.111Z,13.57
2022-11-11T01:04:58.536Z,13.95
2022-11-11T01:05:30.187Z,12.90
2022-11-11T01:06:02.674Z,13.80
2022-11-11T01:06:39.451Z,14.70
2022-11-11T01:07:11.080Z,14.07
2022-11-11T01:07:42.684Z,13.60
2022-11-11T01:08:14.375Z,12.48
2022-11-11T01:08:47.738Z,12.55
2022-11-11T01:09:26.089Z,14.25
2022-11-11T01:09:57.806Z,13.23
2022-11-11T01:10:39.664Z,15.40
2022-11-11T01:11:20.411Z,14.77
2022-11-11T01:11:51.806Z,13.13
2022-11-11T01:12:23.426Z,13.88
2022-11-11T01:13:12.361Z,15.15
2022-11-11T01:13:47.255Z,14.63
2022-11-11T01:14:21.330Z,14.02
2022-11-11T01:14:53.817Z,14.38
2022-11-11T01:15:26.698Z,14.35
2022-11-11T01:16:04.793Z,14.73
2022-11-11T01:16:36.274Z,14.68
2022-11-11T01:17:16.793Z,13.70
2022-11-11T01:17:51.155Z,13.73
2022-11-11T01:18:25.760Z,16.48
2022-11-11T01:18:57.617Z,15.23
2022-11-11T01:19:29.682Z,15.68
2022-11-11T01:20:01.402Z,15.65
2022-11-11T01:20:37.556Z,14.45
2022-11-11T01:21:13.858Z,14.65
2022-11-11T01:21:45.843Z,15.50
2022-11-11T01:22:17.343Z,14.77
2022-11-11T01:22:48.943Z,14.38
2022-11-11T01:23:20.516Z,15.50
2022-11-11T01:24:13.235Z,15.77
2022-11-11T01:24:46.382Z,14.05
2022-11-11T01:25:17.834Z,17.05
2022-11-11T01:25:49.538Z,16.42
2022-11-11T01:26:30.980Z,14.95
2022-11-11T01:27:03.411Z,14.50
2022-11-11T01:27:34.950Z,15.95
2022-11-11T01:28:07.627Z,15.40
2022-11-11T01:28:39.136Z,15.57
2022-11-11T01:29:14.219Z,15.97
2022-11-11T01:29:46.441Z,16.40
2022-11-11T01:30:20.565Z,17.17
2022-11-11T01:30:52.176Z,17.20
2022-11-11T01:31:25.542Z,16.38
2022-11-11T01:31:59.608Z,16.40
2022-11-11T01:32:36.601Z,16.42
2022-11-11T01:33:09.954Z,16.13
2022-11-11T01:33:43.591Z,16.90
2022-11-11T01:34:14.954Z,16.42
2022-11-11T01:34:46.410Z,16.97
2022-11-11T01:35:17.999Z,17.70
2022-11-11T01:35:49.652Z,16.52
2022-11-11T01:36:26.902Z,16.40
2022-11-11T01:36:58.455Z,16.85
2022-11-11T01:37:32.506Z,15.30
2022-11-11T01:38:11.208Z,16.92
2022-11-11T01:38:50.425Z,16.42
2022-11-11T01:39:24.966Z,17.08
2022-11-11T01:39:56.515Z,17.70
2022-11-11T01:40:30.477Z,16.43
2022-11-11T01:41:25.140Z,16.20
2022-11-11T01:42:02.215Z,15.50
2022-11-11T01:43:13.510Z,16.45
2022-11-11T01:43:47.502Z,15.63
2022-11-11T01:44:43.635Z,16.27
2022-11-11T01:45:44.843Z,14.82
2022-11-11T01:46:29.223Z,15.93
2022-11-11T01:47:04.286Z,17.08
2022-11-11T01:48:33.848Z,15.38
2022-11-11T01:49:25.771Z,15.37
2022-11-11T01:50:01.003Z,14.75
2022-11-11T01:50:32.605Z,16.17
2022-11-11T01:51:12.364Z,16.50
2022-11-11T01:51:55.166Z,17.08
2022-11-11T01:52:30.844Z,16.95
2022-11-11T01:53:02.174Z,18.10
2022-11-11T01:53:34.142Z,17.00
2022-11-11T01:54:10.247Z,17.90
2022-11-11T01:55:07.831Z,16.98
2022-11-11T01:55:44.672Z,15.97
2022-11-11T01:56:16.794Z,17.33
2022-11-11T01:56:51.769Z,17.88
2022-11-11T01:57:38.934Z,18.52
2022-11-11T01:58:18.374Z,18.52
2022-11-11T01:58:54.222Z,17.45
2022-11-11T01:59:31.996Z,18.00
2022-11-11T02:00:10.848Z,18.30
2022-11-11T02:00:42.653Z,18.60
2022-11-11T02:01:18.198Z,18.20
2022-11-11T02:01:53.182Z,18.30
2022-11-11T02:02:44.438Z,18.20
2022-11-11T02:03:18.748Z,18.45
2022-11-11T02:04:12.005Z,18.05
2022-11-11T02:05:10.597Z,19.45
2022-11-11T02:05:42.208Z,17.50
2022-11-11T02:06:14.109Z,17.90
2022-11-11T02:06:46.899Z,19.25
2022-11-11T02:07:19.396Z,18.48
2022-11-11T02:07:51.147Z,20.08
2022-11-11T02:08:33.169Z,19.63
2022-11-11T02:09:06.156Z,19.20
2022-11-11T02:09:42.270Z,19.42
2022-11-11T02:10:13.682Z,20.50
2022-11-11T02:10:46.712Z,19.25
2022-11-11T02:11:41.240Z,18.52
2022-11-11T02:12:30.977Z,17.45
2022-11-11T02:13:21.223Z,17.83
2022-11-11T02:14:11.299Z,18.30
2022-11-11T02:14:46.999Z,19.42
2022-11-11T02:15:18.467Z,18.27
2022-11-11T02:15:50.001Z,18.98
2022-11-11T02:16:21.395Z,20.35
2022-11-11T02:16:52.841Z,18.83
2022-11-11T02:17:25.689Z,18.33
2022-11-11T02:17:57.136Z,18.33
2022-11-11T02:18:30.986Z,18.67
2022-11-11T02:19:07.483Z,18.85
2022-11-11T02:19:46.968Z,19.67
2022-11-11T02:20:25.877Z,19.33
2022-11-11T02:21:00.482Z,18.27
2022-11-11T02:21:41.979Z,18.83
2022-11-11T02:22:19.467Z,19.02
2022-11-11T02:23:12.875Z,20.02
2022-11-11T02:24:09.287Z,18.17
2022-11-11T02:24:42.724Z,18.80
2022-11-11T02:25:18.756Z,19.08
2022-11-11T02:25:52.243Z,17.83
2022-11-11T02:26:27.172Z,19.98
2022-11-11T02:27:00.242Z,18.85
2022-11-11T02:27:32.162Z,20.50
2022-11-11T02:28:06.711Z,20.50
2022-11-11T02:28:39.328Z,19.45
2022-11-11T02:29:14.917Z,20.02
2022-11-11T02:29:49.364Z,21.05
2022-11-11T02:30:39.519Z,20.05
2022-11-11T02:31:11.094Z,19.05
2022-11-11T02:31:42.801Z,20.05
2022-11-11T02:32:14.258Z,18.50
2022-11-11T02:32:51.258Z,19.65
2022-11-11T02:33:22.903Z,20.07
2022-11-11T02:33:54.951Z,18.88
2022-11-11T02:34:33.182Z,20.00
2022-11-11T02:35:13.336Z,20.70
2022-11-11T02:35:48.418Z,19.55
2022-11-11T02:36:19.878Z,20.85
2022-11-11T02:36:51.602Z,20.23
2022-11-11T02:37:26.805Z,20.63
2022-11-11T02:37:58.491Z,20.92
2022-11-11T02:38:30.746Z,19.60
2022-11-11T02:39:02.323Z,19.13
2022-11-11T02:40:02.531Z,20.23
2022-11-11T02:41:04.491Z,17.60
2022-11-11T02:41:54.304Z,18.55
2022-11-11T02:42:25.871Z,18.55
2022-11-11T02:42:57.350Z,19.65
2022-11-11T02:43:32.845Z,19.08
2022-11-11T02:44:06.507Z,19.00
2022-11-11T02:44:38.227Z,19.38
2022-11-11T02:45:10.185Z,19.60
2022-11-11T02:45:41.751Z,20.13
2022-11-11T02:46:13.287Z,18.77
2022-11-11T02:46:49.108Z,19.23
2022-11-11T02:47:20.700Z,19.88
2022-11-11T02:47:55.965Z,19.05
2022-11-11T02:48:28.250Z,20.25
2022-11-11T02:48:59.697Z,18.70
2022-11-11T02:49:36.449Z,19.88
2022-11-11T02:50:58.230Z,19.52
2022-11-11T02:51:29.680Z,18.93
2022-11-11T02:52:01.042Z,19.25
2022-11-11T02:52:33.290Z,18.45
2022-11-11T02:53:04.801Z,20.77
2022-11-11T02:53:36.333Z,20.27
2022-11-11T02:54:07.895Z,20.08
2022-11-11T02:54:39.695Z,19.92
2022-11-11T02:55:11.802Z,19.17
2022-11-11T02:55:43.216Z,19.95
2022-11-11T02:56:34.668Z,18.27
2022-11-11T02:57:09.088Z,19.33
2022-11-11T02:57:40.845Z,18.83
2022-11-11T02:58:13.749Z,19.13
2022-11-11T02:58:45.243Z,19.35
2022-11-11T02:59:16.723Z,19.50
2022-11-11T02:59:48.142Z,19.95
2022-11-11T03:00:25.363Z,19.58
2022-11-11T03:00:57.091Z,20.10
2022-11-11T03:01:30.828Z,20.52
2022-11-11T03:02:02.678Z,20.08
2022-11-11T03:02:36.636Z,19.73
2022-11-11T03:03:09.260Z,20.25
2022-11-11T03:03:41.019Z,19.38
2022-11-11T03:04:12.622Z,19.05
2022-11-11T03:04:48.954Z,20.15
2022-11-11T03:05:27.718Z,18.80
2022-11-11T03:06:02.661Z,19.52
2022-11-11T03:06:34.593Z,20.35
2022-11-11T03:07:06.791Z,19.45
2022-11-11T03:07:38.532Z,18.38
2022-11-11T03:08:13.194Z,20.40
2022-11-11T03:08:51.206Z,20.25
2022-11-11T03:09:22.812Z,19.73
2022-11-11T03:09:56.903Z,20.65
2022-11-11T03:10:28.922Z,20.00
2022-11-11T03:11:00.612Z,19.63
2022-11-11T03:11:32.057Z,19.15
2022-11-11T03:12:03.781Z,19.15
2022-11-11T03:12:35.524Z,19.60
2022-11-11T03:13:07.760Z,20.80
2022-11-11T03:13:42.346Z,20.40
2022-11-11T03:14:13.954Z,20.00
2022-11-11T03:14:45.548Z,17.90
2022-11-11T03:15:17.226Z,19.40
2022-11-11T03:15:52.910Z,20.73
2022-11-11T03:16:44.087Z,18.95
2022-11-11T03:17:34.329Z,19.23
2022-11-11T03:18:05.794Z,18.77
2022-11-11T03:18:37.206Z,19.17
2022-11-11T03:19:09.039Z,19.60
2022-11-11T03:19:40.521Z,23.30
2022-11-11T03:20:32.054Z,20.52
2022-11-11T03:22:25.510Z,19.30
2022-11-11T03:23:10.252Z,19.20
2022-11-11T03:23:41.563Z,18.40
2022-11-11T03:24:12.910Z,18.48
2022-11-11T03:25:02.831Z,18.27
2022-11-11T03:25:40.806Z,18.70
2022-11-11T03:26:12.362Z,17.13
2022-11-11T03:26:43.784Z,18.17
2022-11-11T03:27:16.805Z,18.90
2022-11-11T03:27:48.196Z,19.83
2022-11-11T03:28:21.422Z,18.48
2022-11-11T03:28:54.602Z,20.02
2022-11-11T03:29:26.148Z,19.15
2022-11-11T03:29:57.841Z,18.65
2022-11-11T03:30:31.902Z,19.52
2022-11-11T03:31:04.925Z,18.92
2022-11-11T03:31:38.718Z,18.80
2022-11-11T03:32:10.310Z,19.43
2022-11-11T03:32:43.275Z,19.25
2022-11-11T03:33:18.968Z,18.02
2022-11-11T03:33:50.406Z,18.20
2022-11-11T03:34:21.966Z,20.90
2022-11-11T03:34:56.339Z,19.33
2022-11-11T03:35:31.439Z,18.10
2022-11-11T03:36:05.351Z,18.95
2022-11-11T03:36:55.334Z,18.35
2022-11-11T03:37:45.455Z,18.52
2022-11-11T03:38:23.524Z,16.80
2022-11-11T03:38:54.911Z,17.42
2022-11-11T03:39:26.434Z,17.83
2022-11-11T03:39:57.785Z,17.83
2022-11-11T03:40:29.194Z,18.60
2022-11-11T03:41:01.131Z,17.75
2022-11-11T03:41:32.603Z,20.27
2022-11-11T03:42:06.245Z,18.83
2022-11-11T03:42:37.654Z,18.65
2022-11-11T03:43:09.510Z,17.52
2022-11-11T03:43:43.360Z,18.13
2022-11-11T03:44:14.809Z,17.17
2022-11-11T03:44:46.233Z,18.13
2022-11-11T03:45:17.636Z,19.48
2022-11-11T03:46:07.959Z,18.95
2022-11-11T03:46:39.328Z,18.30
2022-11-11T03:47:10.767Z,17.70
2022-11-11T03:47:42.295Z,17.15
2022-11-11T03:48:14.400Z,19.52
2022-11-11T03:48:45.861Z,18.00
2022-11-11T03:49:17.289Z,18.23
2022-11-11T03:49:48.809Z,17.70
2022-11-11T03:50:23.652Z,17.98
2022-11-11T03:50:55.325Z,18.58
2022-11-11T03:51:28.645Z,17.98
2022-11-11T03:52:02.443Z,19.20
2022-11-11T03:52:35.243Z,17.25
2022-11-11T03:53:09.322Z,19.00
2022-11-11T03:53:41.080Z,18.88
2022-11-11T03:54:13.110Z,17.58
2022-11-11T03:54:44.798Z,18.13
2022-11-11T03:55:20.709Z,18.02
2022-11-11T03:55:52.447Z,18.00
2022-11-11T03:56:26.197Z,18.50
2022-11-11T03:57:17.518Z,17.17
2022-11-11T03:57:50.364Z,17.40
2022-11-11T03:58:21.831Z,16.48
2022-11-11T03:59:00.338Z,17.13
2022-11-11T03:59:31.816Z,18.60
2022-11-11T04:00:08.920Z,18.33
2022-11-11T04:00:47.363Z,17.03
2022-11-11T04:01:37.561Z,17.58
2022-11-11T04:02:31.459Z,16.17
2022-11-11T04:03:39.734Z,16.67
2022-11-11T04:04:29.311Z,16.15
2022-11-11T04:05:19.023Z,15.93
2022-11-11T04:06:09.219Z,15.75
2022-11-11T04:06:58.940Z,15.70
2022-11-11T04:07:48.941Z,17.50
2022-11-11T04:08:40.500Z,16.00
2022-11-11T04:09:30.765Z,15.20
2022-11-11T04:10:20.821Z,14.82
2022-11-11T04:10:52.770Z,14.98
2022-11-11T04:11:33.369Z,17.45
2022-11-11T04:12:04.867Z,16.15
2022-11-11T04:12:56.607Z,17.00
2022-11-11T04:13:46.934Z,15.88
2022-11-11T04:14:37.051Z,16.00
2022-11-11T04:15:27.572Z,16.65
2022-11-11T04:16:07.632Z,17.67
2022-11-11T04:16:38.945Z,16.53
2022-11-11T04:17:10.391Z,16.00
2022-11-11T04:17:41.763Z,16.98
2022-11-11T04:18:13.183Z,18.80
2022-11-11T04:19:03.018Z,18.13
2022-11-11T04:19:53.001Z,15.95
2022-11-11T04:20:42.927Z,16.63
2022-11-11T04:21:32.633Z,17.88
2022-11-11T04:22:04.171Z,15.38
2022-11-11T04:22:41.542Z,16.42
2022-11-11T04:23:12.875Z,16.33
2022-11-11T04:23:44.192Z,17.20
2022-11-11T04:24:38.783Z,16.83
2022-11-11T04:25:28.672Z,15.75
2022-11-11T04:26:02.879Z,16.73
2022-11-11T04:26:34.184Z,16.98
2022-11-11T04:27:13.155Z,17.30
2022-11-11T04:27:44.463Z,16.73
2022-11-11T04:28:34.543Z,17.50
2022-11-11T04:29:24.407Z,15.25
2022-11-11T04:29:55.705Z,15.57
2022-11-11T04:30:27.002Z,16.02
2022-11-11T04:30:58.350Z,16.63
2022-11-11T04:31:29.655Z,18.27
2022-11-11T04:32:27.896Z,17.50
2022-11-11T04:32:59.201Z,16.63
2022-11-11T04:33:30.531Z,15.65
2022-11-11T04:34:01.885Z,16.35
2022-11-11T04:34:33.211Z,16.90
2022-11-11T04:35:12.415Z,16.73
2022-11-11T04:35:49.380Z,16.93
2022-11-11T04:36:20.891Z,16.20
2022-11-11T04:36:52.202Z,16.70
2022-11-11T04:37:25.229Z,17.73
2022-11-11T04:38:16.538Z,16.52
2022-11-11T04:39:06.476Z,15.20
2022-11-11T04:39:56.219Z,15.25
2022-11-11T04:40:46.039Z,14.55
2022-11-11T04:41:17.318Z,16.60
2022-11-11T04:42:07.088Z,15.02
2022-11-11T04:42:39.785Z,16.63
2022-11-11T04:43:11.067Z,15.65
2022-11-11T04:44:00.933Z,15.63
2022-11-11T04:44:50.933Z,15.63
2022-11-11T04:45:27.924Z,15.95
2022-11-11T04:45:59.892Z,15.63
2022-11-11T04:46:31.198Z,16.15
2022-11-11T04:47:02.526Z,16.45
2022-11-11T04:47:33.931Z,16.98
2022-11-11T04:48:10.372Z,15.73
2022-11-11T04:48:41.711Z,14.80
2022-11-11T04:49:13.047Z,14.48
2022-11-11T04:49:44.551Z,15.70
2022-11-11T04:50:24.236Z,16.73
2022-11-11T04:50:55.695Z,15.75
2022-11-11T04:51:47.122Z,15.23
2022-11-11T04:52:27.642Z,14.88
2022-11-11T04:52:59.851Z,15.10
2022-11-11T04:53:31.166Z,15.13
2022-11-11T04:54:02.611Z,16.00
2022-11-11T04:54:54.028Z,15.03
2022-11-11T04:55:44.408Z,15.27
2022-11-11T04:56:34.575Z,15.10
2022-11-11T04:57:05.914Z,15.25
2022-11-11T04:57:42.463Z,14.93
2022-11-11T04:58:14.602Z,15.45
2022-11-11T04:58:46.941Z,14.40
2022-11-11T04:59:18.367Z,16.90
2022-11-11T04:59:49.661Z,16.48
2022-11-11T05:00:21.074Z,15.82
2022-11-11T05:00:52.734Z,15.13
2022-11-11T05:01:46.291Z,14.60
2022-11-11T05:02:36.306Z,15.43
2022-11-11T05:03:16.396Z,14.50
2022-11-11T05:03:47.704Z,15.98
2022-11-11T05:04:19.042Z,14.20
2022-11-11T05:04:50.379Z,15.30
2022-11-11T05:05:23.230Z,15.55
2022-11-11T05:06:18.132Z,14.90
2022-11-11T05:07:08.276Z,13.95
2022-11-11T05:07:58.424Z,13.27
2022-11-11T05:08:48.717Z,14.57
2022-11-11T05:09:20.081Z,13.07
2022-11-11T05:09:51.427Z,15.38
2022-11-11T05:10:22.950Z,14.40
2022-11-11T05:10:54.340Z,16.55
2022-11-11T05:11:30.695Z,15.05
2022-11-11T05:12:02.360Z,14.65
2022-11-11T05:12:33.863Z,15.95
2022-11-11T05:13:24.323Z,14.68
2022-11-11T05:14:29.987Z,13.63
2022-11-11T05:15:19.834Z,14.63
2022-11-11T05:16:09.463Z,13.27
2022-11-11T05:17:04.749Z,14.30
2022-11-11T05:17:54.603Z,13.98
2022-11-11T05:18:44.096Z,13.48
2022-11-11T05:19:34.752Z,14.80
2022-11-11T05:20:25.135Z,14.02
2022-11-11T05:21:15.174Z,12.85
2022-11-11T05:21:46.667Z,13.65
2022-11-11T05:22:34.253Z,14.33
2022-11-11T05:23:05.574Z,13.45
2022-11-11T05:23:55.327Z,15.35
2022-11-11T05:24:45.248Z,14.43
2022-11-11T05:25:25.586Z,14.70
2022-11-11T05:25:56.885Z,14.50
2022-11-11T05:26:32.007Z,14.55
2022-11-11T05:27:03.693Z,14.65
2022-11-11T05:27:35.046Z,14.95
2022-11-11T05:28:06.398Z,15.38
2022-11-11T05:28:40.003Z,15.07
2022-11-11T05:29:11.595Z,15.48
2022-11-11T05:29:43.407Z,15.25
2022-11-11T05:30:16.601Z,15.38
2022-11-11T05:30:51.122Z,15.27
2022-11-11T05:31:25.318Z,14.65
2022-11-11T05:31:57.033Z,15.88
2022-11-11T05:32:28.827Z,16.38
2022-11-11T05:33:00.199Z,15.02
2022-11-11T05:33:31.655Z,15.07
2022-11-11T05:34:06.057Z,15.47
2022-11-11T05:34:37.704Z,15.20
2022-11-11T05:35:12.228Z,15.18
2022-11-11T05:35:43.717Z,15.73
2022-11-11T05:36:15.084Z,15.05
2022-11-11T05:36:46.718Z,14.13
2022-11-11T05:37:24.369Z,16.02
2022-11-11T05:38:20.287Z,15.73
2022-11-11T05:38:54.013Z,14.98
2022-11-11T05:39:30.204Z,14.50
2022-11-11T05:40:04.314Z,14.47
2022-11-11T05:40:38.007Z,13.90
2022-11-11T05:41:09.733Z,15.30
2022-11-11T05:41:41.236Z,15.52
2022-11-11T05:42:18.496Z,14.77
2022-11-11T05:42:54.535Z,14.77
2022-11-11T05:43:28.584Z,14.38
2022-11-11T05:44:00.031Z,15.75
2022-11-11T05:44:31.725Z,15.77
2022-11-11T05:45:06.003Z,15.32
2022-11-11T05:45:37.597Z,15.00
2022-11-11T05:46:09.109Z,14.82
2022-11-11T05:46:40.901Z,14.63
2022-11-11T05:47:12.343Z,14.95
2022-11-11T05:47:48.725Z,15.82
2022-11-11T05:48:23.798Z,15.82
2022-11-11T05:49:14.078Z,14.82
2022-11-11T05:49:45.712Z,13.73
2022-11-11T05:50:17.195Z,15.23
2022-11-11T05:50:48.491Z,15.02
2022-11-11T05:51:28.173Z,14.93
2022-11-11T05:52:21.318Z,14.30
2022-11-11T05:52:52.612Z,15.18
2022-11-11T05:53:24.694Z,14.45
2022-11-11T05:53:57.972Z,14.10
2022-11-11T05:54:32.847Z,14.98
2022-11-11T05:55:04.644Z,15.60
2022-11-11T05:55:36.143Z,14.85
2022-11-11T05:56:07.634Z,14.45
2022-11-11T05:56:39.815Z,13.95
2022-11-11T05:57:11.482Z,14.17
2022-11-11T05:57:43.212Z,14.57
2022-11-11T05:58:16.898Z,14.57
2022-11-11T05:58:50.759Z,14.80
2022-11-11T05:59:25.209Z,14.25
2022-11-11T05:59:58.877Z,16.48
2022-11-11T06:00:32.226Z,14.88
2022-11-11T06:01:05.433Z,16.92
2022-11-11T06:01:37.716Z,15.55
2022-11-11T06:02:11.865Z,14.10
2022-11-11T06:02:43.265Z,13.77
2022-11-11T06:03:14.793Z,13.60
2022-11-11T06:03:46.615Z,13.93
2022-11-11T06:04:20.608Z,15.32
2022-11-11T06:04:55.427Z,15.48
2022-11-11T06:05:28.103Z,14.98
2022-11-11T06:05:59.633Z,14.75
2022-11-11T06:06:34.289Z,14.70
2022-11-11T06:07:05.963Z,14.45
2022-11-11T06:07:39.605Z,15.82
2022-11-11T06:08:11.258Z,15.73
2022-11-11T06:08:44.701Z,15.18
2022-11-11T06:09:16.636Z,13.65
2022-11-11T06:09:50.382Z,16.17
2022-11-11T06:10:30.932Z,14.50
2022-11-11T06:11:02.462Z,14.10
2022-11-11T06:11:33.991Z,14.77
2022-11-11T06:12:06.815Z,14.55
2022-11-11T06:13:02.152Z,13.95
2022-11-11T06:13:33.883Z,14.25
2022-11-11T06:14:06.169Z,13.67
2022-11-11T06:14:39.964Z,13.82
2022-11-11T06:15:13.165Z,14.38
2022-11-11T06:15:44.494Z,13.73
2022-11-11T06:16:15.968Z,15.75
2022-11-11T06:16:47.467Z,14.43
2022-11-11T06:17:21.387Z,14.27
2022-11-11T06:17:56.430Z,14.77
2022-11-11T06:18:31.237Z,15.40
2022-11-11T06:19:07.235Z,15.00
2022-11-11T06:19:57.322Z,14.10
2022-11-11T06:20:31.783Z,13.70
2022-11-11T06:21:03.331Z,13.13
2022-11-11T06:21:54.898Z,13.27
2022-11-11T06:22:46.215Z,13.73
2022-11-11T06:23:17.683Z,13.32
2022-11-11T06:23:49.269Z,14.85
2022-11-11T06:24:25.987Z,14.68
2022-11-11T06:25:17.813Z,13.80
2022-11-11T06:26:08.532Z,13.55
2022-11-11T06:26:39.932Z,12.87
2022-11-11T06:27:11.401Z,14.77
2022-11-11T06:27:42.908Z,14.13
2022-11-11T06:28:15.582Z,14.13
2022-11-11T06:28:49.328Z,13.10
2022-11-11T06:29:20.701Z,14.43
2022-11-11T06:29:52.188Z,14.75
2022-11-11T06:30:48.254Z,15.00
2022-11-11T06:31:20.150Z,14.68
2022-11-11T06:31:53.416Z,14.60
2022-11-11T06:32:25.031Z,14.87
2022-11-11T06:33:02.833Z,13.95
2022-11-11T06:33:37.465Z,13.70
2022-11-11T06:34:08.853Z,14.32
2022-11-11T06:34:40.225Z,15.38
2022-11-11T06:35:11.549Z,14.38
2022-11-11T06:35:44.697Z,14.60
2022-11-11T06:36:18.534Z,15.30
2022-11-11T06:36:50.076Z,14.05
2022-11-11T06:37:21.441Z,17.08
2022-11-11T06:37:53.082Z,14.33
2022-11-11T06:38:24.610Z,14.65
2022-11-11T06:38:56.128Z,15.23
2022-11-11T06:39:27.548Z,15.35
2022-11-11T06:39:58.876Z,15.25
2022-11-11T06:40:30.947Z,15.57
2022-11-11T06:41:02.328Z,15.80
2022-11-11T06:41:33.681Z,16.85
2022-11-11T06:42:05.007Z,16.52
2022-11-11T06:42:37.977Z,15.27
2022-11-11T06:43:09.768Z,14.37
2022-11-11T06:43:42.540Z,15.07
2022-11-11T06:44:13.833Z,15.80
2022-11-11T06:44:45.140Z,16.10
2022-11-11T06:45:16.842Z,15.77
2022-11-11T06:45:52.546Z,15.60
2022-11-11T06:46:25.803Z,15.32
2022-11-11T06:46:57.113Z,15.73
2022-11-11T06:47:28.573Z,14.80
2022-11-11T06:48:00.040Z,15.98
2022-11-11T06:48:31.373Z,15.50
2022-11-11T06:49:02.826Z,16.02
2022-11-11T06:49:34.255Z,15.40
2022-11-11T06:50:06.229Z,16.00
2022-11-11T06:50:37.717Z,15.27
2022-11-11T06:51:11.188Z,14.77
2022-11-11T06:51:42.537Z,15.35
2022-11-11T06:52:14.372Z,14.98
2022-11-11T06:52:45.858Z,16.05
2022-11-11T06:53:19.490Z,15.75
2022-11-11T06:53:51.020Z,17.20
2022-11-11T06:54:23.585Z,15.63
2022-11-11T06:54:54.900Z,14.93
2022-11-11T06:55:26.214Z,16.25
2022-11-11T06:55:58.217Z,16.45
2022-11-11T06:56:29.556Z,15.57
2022-11-11T06:57:05.825Z,16.90
2022-11-11T06:57:39.951Z,16.02
2022-11-11T06:58:14.456Z,15.57
2022-11-11T06:58:45.876Z,15.90
2022-11-11T06:59:17.202Z,14.47
2022-11-11T06:59:48.528Z,14.57
2022-11-11T07:00:20.232Z,16.45
2022-11-11T07:00:51.795Z,16.33
2022-11-11T07:01:23.309Z,16.08
2022-11-11T07:01:54.698Z,15.88
2022-11-11T07:02:26.023Z,16.23
2022-11-11T07:02:57.663Z,15.65
2022-11-11T07:03:29.041Z,17.17
2022-11-11T07:04:00.588Z,16.45
2022-11-11T07:04:31.917Z,16.13
2022-11-11T07:05:04.009Z,16.65
2022-11-11T07:05:35.326Z,14.73
2022-11-11T07:06:06.811Z,16.20
2022-11-11T07:06:38.372Z,18.10
2022-11-11T07:07:09.754Z,16.67
2022-11-11T07:07:41.078Z,16.88
2022-11-11T07:08:15.801Z,16.33
2022-11-11T07:08:47.136Z,16.52
2022-11-11T07:09:18.464Z,15.93
2022-11-11T07:09:49.983Z,17.00
2022-11-11T07:10:21.753Z,16.92
2022-11-11T07:10:53.318Z,16.17
2022-11-11T07:11:24.628Z,16.83
2022-11-11T07:11:55.950Z,17.20
2022-11-11T07:12:33.235Z,17.27
2022-11-11T07:13:06.337Z,16.67
2022-11-11T07:13:37.704Z,16.00
2022-11-11T07:14:09.059Z,17.08
2022-11-11T07:14:40.421Z,15.73
2022-11-11T07:15:12.004Z,16.53
2022-11-11T07:15:44.380Z,15.38
2022-11-11T07:16:15.758Z,16.23
2022-11-11T07:16:47.100Z,17.13
2022-11-11T07:17:18.573Z,17.00
2022-11-11T07:17:49.918Z,17.17
2022-11-11T07:18:21.987Z,16.35
2022-11-11T07:18:53.622Z,16.90
2022-11-11T07:19:26.937Z,15.98
2022-11-11T07:19:58.562Z,16.38
2022-11-11T07:20:30.291Z,15.73
2022-11-11T07:21:01.660Z,15.23
2022-11-11T07:21:32.993Z,16.45
2022-11-11T07:22:04.801Z,16.27
2022-11-11T07:22:38.150Z,15.65
2022-11-11T07:23:09.776Z,15.27
2022-11-11T07:23:41.216Z,15.55
2022-11-11T07:24:12.635Z,16.20
2022-11-11T07:24:44.018Z,16.70
2022-11-11T07:25:15.634Z,15.90
2022-11-11T07:25:46.953Z,16.97
2022-11-11T07:26:18.319Z,16.70
2022-11-11T07:26:51.952Z,16.70
2022-11-11T07:27:23.291Z,15.75
2022-11-11T07:27:58.926Z,16.10
2022-11-11T07:28:30.717Z,16.70
2022-11-11T07:29:02.219Z,15.48
2022-11-11T07:29:33.563Z,16.90
2022-11-11T07:30:06.108Z,15.23
2022-11-11T07:30:37.539Z,14.43
2022-11-11T07:31:08.981Z,15.83
2022-11-11T07:31:41.375Z,15.23
2022-11-11T07:32:12.728Z,14.95
2022-11-11T07:32:48.249Z,16.73
2022-11-11T07:33:24.288Z,14.98
2022-11-11T07:33:56.173Z,15.45
2022-11-11T07:34:28.731Z,15.05
2022-11-11T07:35:00.104Z,15.30
2022-11-11T07:35:31.652Z,15.75
2022-11-11T07:36:03.355Z,16.45
2022-11-11T07:36:34.720Z,15.07
2022-11-11T07:37:06.083Z,15.73
2022-11-11T07:37:38.112Z,14.20
2022-11-11T07:38:09.422Z,15.38
2022-11-11T07:38:40.733Z,15.65
2022-11-11T07:39:12.155Z,14.70
2022-11-11T07:39:43.502Z,15.07
2022-11-11T07:40:16.823Z,14.20
2022-11-11T07:40:48.167Z,16.15
2022-11-11T07:41:19.563Z,14.55
2022-11-11T07:41:50.897Z,14.50
2022-11-11T07:42:37.306Z,16.20
2022-11-11T07:43:08.616Z,14.82
2022-11-11T07:43:39.915Z,14.25
2022-11-11T07:44:11.234Z,15.63
2022-11-11T07:44:49.092Z,14.57
2022-11-11T07:45:20.773Z,14.55
2022-11-11T07:45:52.124Z,14.98
2022-11-11T07:46:23.459Z,15.50
2022-11-11T07:46:54.836Z,15.55